sensor_id;sensor_type;location;lat;lon;timestamp;P1;durP1;ratioP1;P2;durP2;ratioP2
64826;SDS011;51265;53.972;12.286;2022-07-26T00:01:28;15.52;;;5.13;;
64826;SDS011;51265;53.972;12.286;2022-07-26T00:03:53;13.50;;;4.88;;
64826;SDS011;51265;53.972;12.286;2022-07-26T00:06:20;11.63;;;4.50;;
64826;SDS011;51265;53.972;12.286;2022-07-26T00:08:46;11.77;;;4.72;;
64826;SDS011;51265;53.972;12.286;2022-07-26T00:11:13;15.95;;;5.05;;
64826;SDS011;51265;53.972;12.286;2022-07-26T00:13:39;14.48;;;4.63;;
64826;SDS011;51265;53.972;12.286;2022-07-26T00:16:05;12.25;;;4.38;;
64826;SDS011;51265;53.972;12.286;2022-07-26T00:18:31;11.40;;;4.10;;
64826;SDS011;51265;53.972;12.286;2022-07-26T00:20:57;8.13;;;4.07;;
64826;SDS011;51265;53.972;12.286;2022-07-26T00:23:23;8.07;;;4.15;;
64826;SDS011;51265;53.972;12.286;2022-07-26T00:25:49;8.10;;;4.50;;
64826;SDS011;51265;53.972;12.286;2022-07-26T00:28:15;11.00;;;4.30;;
64826;SDS011;51265;53.972;12.286;2022-07-26T00:30:41;12.40;;;4.68;;
64826;SDS011;51265;53.972;12.286;2022-07-26T00:33:07;11.32;;;3.95;;
64826;SDS011;51265;53.972;12.286;2022-07-26T00:35:33;12.05;;;4.85;;
64826;SDS011;51265;53.972;12.286;2022-07-26T00:37:59;9.15;;;4.50;;
64826;SDS011;51265;53.972;12.286;2022-07-26T00:40:25;10.48;;;4.22;;
64826;SDS011;51265;53.972;12.286;2022-07-26T00:42:51;12.15;;;4.63;;
64826;SDS011;51265;53.972;12.286;2022-07-26T00:45:17;14.23;;;4.30;;
64826;SDS011;51265;53.972;12.286;2022-07-26T00:47:43;13.10;;;4.43;;
64826;SDS011;51265;53.972;12.286;2022-07-26T00:50:10;11.32;;;3.70;;
64826;SDS011;51265;53.972;12.286;2022-07-26T00:52:40;13.63;;;3.97;;
64826;SDS011;51265;53.972;12.286;2022-07-26T00:55:11;12.18;;;4.05;;
64826;SDS011;51265;53.972;12.286;2022-07-26T00:57:39;10.50;;;3.80;;
64826;SDS011;51265;53.972;12.286;2022-07-26T01:00:06;13.25;;;3.67;;
64826;SDS011;51265;53.972;12.286;2022-07-26T01:02:34;11.63;;;4.15;;
64826;SDS011;51265;53.972;12.286;2022-07-26T01:05:00;7.85;;;3.80;;
64826;SDS011;51265;53.972;12.286;2022-07-26T01:07:26;8.32;;;4.20;;
64826;SDS011;51265;53.972;12.286;2022-07-26T01:09:53;13.35;;;4.15;;
64826;SDS011;51265;53.972;12.286;2022-07-26T01:12:19;9.13;;;4.28;;
64826;SDS011;51265;53.972;12.286;2022-07-26T01:14:45;9.73;;;4.13;;
64826;SDS011;51265;53.972;12.286;2022-07-26T01:17:11;11.02;;;4.00;;
64826;SDS011;51265;53.972;12.286;2022-07-26T01:19:38;8.60;;;4.07;;
64826;SDS011;51265;53.972;12.286;2022-07-26T01:22:05;14.50;;;3.92;;
64826;SDS011;51265;53.972;12.286;2022-07-26T01:24:31;12.13;;;4.28;;
64826;SDS011;51265;53.972;12.286;2022-07-26T01:26:57;15.27;;;4.30;;
64826;SDS011;51265;53.972;12.286;2022-07-26T01:29:23;12.15;;;3.90;;
64826;SDS011;51265;53.972;12.286;2022-07-26T01:31:49;14.02;;;4.30;;
64826;SDS011;51265;53.972;12.286;2022-07-26T01:34:16;14.73;;;4.00;;
64826;SDS011;51265;53.972;12.286;2022-07-26T01:36:42;13.50;;;4.30;;
64826;SDS011;51265;53.972;12.286;2022-07-26T01:39:08;16.75;;;4.05;;
64826;SDS011;51265;53.972;12.286;2022-07-26T01:41:34;21.77;;;4.85;;
64826;SDS011;51265;53.972;12.286;2022-07-26T01:44:00;12.30;;;4.50;;
64826;SDS011;51265;53.972;12.286;2022-07-26T01:46:27;13.80;;;4.90;;
64826;SDS011;51265;53.972;12.286;2022-07-26T01:48:53;15.45;;;4.28;;
64826;SDS011;51265;53.972;12.286;2022-07-26T01:51:19;19.17;;;4.40;;
64826;SDS011;51265;53.972;12.286;2022-07-26T01:53:45;10.45;;;3.80;;
64826;SDS011;51265;53.972;12.286;2022-07-26T01:56:12;7.55;;;3.65;;
64826;SDS011;51265;53.972;12.286;2022-07-26T01:58:38;13.65;;;4.10;;
64826;SDS011;51265;53.972;12.286;2022-07-26T02:01:05;10.75;;;3.60;;
64826;SDS011;51265;53.972;12.286;2022-07-26T02:03:31;15.52;;;4.03;;
64826;SDS011;51265;53.972;12.286;2022-07-26T02:05:57;15.75;;;4.20;;
64826;SDS011;51265;53.972;12.286;2022-07-26T02:08:23;10.32;;;3.72;;
64826;SDS011;51265;53.972;12.286;2022-07-26T02:10:50;8.80;;;4.18;;
64826;SDS011;51265;53.972;12.286;2022-07-26T02:13:29;15.38;;;3.35;;
64826;SDS011;51265;53.972;12.286;2022-07-26T02:15:58;15.40;;;3.70;;
64826;SDS011;51265;53.972;12.286;2022-07-26T02:18:25;15.18;;;3.53;;
64826;SDS011;51265;53.972;12.286;2022-07-26T02:20:52;16.77;;;3.90;;
64826;SDS011;51265;53.972;12.286;2022-07-26T02:23:18;11.35;;;3.80;;
64826;SDS011;51265;53.972;12.286;2022-07-26T02:25:45;14.30;;;4.60;;
64826;SDS011;51265;53.972;12.286;2022-07-26T02:28:12;17.35;;;3.92;;
64826;SDS011;51265;53.972;12.286;2022-07-26T02:30:40;13.93;;;4.72;;
64826;SDS011;51265;53.972;12.286;2022-07-26T02:33:06;12.85;;;4.32;;
64826;SDS011;51265;53.972;12.286;2022-07-26T02:35:32;13.52;;;4.05;;
64826;SDS011;51265;53.972;12.286;2022-07-26T02:38:04;13.13;;;4.32;;
64826;SDS011;51265;53.972;12.286;2022-07-26T02:40:32;12.48;;;4.28;;
64826;SDS011;51265;53.972;12.286;2022-07-26T02:42:58;16.20;;;4.55;;
64826;SDS011;51265;53.972;12.286;2022-07-26T02:45:24;14.75;;;4.50;;
64826;SDS011;51265;53.972;12.286;2022-07-26T02:47:51;12.35;;;4.38;;
64826;SDS011;51265;53.972;12.286;2022-07-26T02:50:18;14.85;;;5.50;;
64826;SDS011;51265;53.972;12.286;2022-07-26T02:52:46;9.25;;;3.80;;
64826;SDS011;51265;53.972;12.286;2022-07-26T02:55:13;10.70;;;4.30;;
64826;SDS011;51265;53.972;12.286;2022-07-26T02:57:41;15.75;;;4.63;;
64826;SDS011;51265;53.972;12.286;2022-07-26T03:00:08;16.98;;;4.57;;
64826;SDS011;51265;53.972;12.286;2022-07-26T03:02:35;16.02;;;4.68;;
64826;SDS011;51265;53.972;12.286;2022-07-26T03:05:02;9.45;;;4.38;;
64826;SDS011;51265;53.972;12.286;2022-07-26T03:07:29;10.95;;;4.93;;
64826;SDS011;51265;53.972;12.286;2022-07-26T03:09:55;15.23;;;4.80;;
64826;SDS011;51265;53.972;12.286;2022-07-26T03:12:21;15.05;;;5.07;;
64826;SDS011;51265;53.972;12.286;2022-07-26T03:14:46;13.65;;;4.82;;
64826;SDS011;51265;53.972;12.286;2022-07-26T03:17:12;16.73;;;5.10;;
64826;SDS011;51265;53.972;12.286;2022-07-26T03:19:38;10.77;;;4.72;;
64826;SDS011;51265;53.972;12.286;2022-07-26T03:22:04;14.13;;;4.70;;
64826;SDS011;51265;53.972;12.286;2022-07-26T03:24:30;9.93;;;4.32;;
64826;SDS011;51265;53.972;12.286;2022-07-26T03:26:56;12.05;;;4.45;;
64826;SDS011;51265;53.972;12.286;2022-07-26T03:29:21;14.90;;;4.50;;
64826;SDS011;51265;53.972;12.286;2022-07-26T03:31:47;16.00;;;4.47;;
64826;SDS011;51265;53.972;12.286;2022-07-26T03:34:13;15.50;;;5.30;;
64826;SDS011;51265;53.972;12.286;2022-07-26T03:36:39;13.77;;;4.15;;
64826;SDS011;51265;53.972;12.286;2022-07-26T03:39:07;12.73;;;4.75;;
64826;SDS011;51265;53.972;12.286;2022-07-26T03:41:33;12.90;;;4.30;;
64826;SDS011;51265;53.972;12.286;2022-07-26T03:43:59;11.65;;;4.47;;
64826;SDS011;51265;53.972;12.286;2022-07-26T03:46:25;10.77;;;3.90;;
64826;SDS011;51265;53.972;12.286;2022-07-26T03:48:50;10.40;;;4.45;;
64826;SDS011;51265;53.972;12.286;2022-07-26T03:51:16;13.75;;;4.10;;
64826;SDS011;51265;53.972;12.286;2022-07-26T03:53:42;10.15;;;4.00;;
64826;SDS011;51265;53.972;12.286;2022-07-26T03:56:08;11.80;;;4.00;;
64826;SDS011;51265;53.972;12.286;2022-07-26T03:58:53;12.20;;;3.97;;
64826;SDS011;51265;53.972;12.286;2022-07-26T04:01:19;9.90;;;4.65;;
64826;SDS011;51265;53.972;12.286;2022-07-26T04:03:46;14.00;;;4.38;;
64826;SDS011;51265;53.972;12.286;2022-07-26T04:06:12;9.75;;;3.85;;
64826;SDS011;51265;53.972;12.286;2022-07-26T04:08:38;10.75;;;4.78;;
64826;SDS011;51265;53.972;12.286;2022-07-26T04:11:04;13.13;;;5.45;;
64826;SDS011;51265;53.972;12.286;2022-07-26T04:13:29;13.55;;;5.05;;
64826;SDS011;51265;53.972;12.286;2022-07-26T04:15:55;8.48;;;4.68;;
64826;SDS011;51265;53.972;12.286;2022-07-26T04:18:22;13.55;;;5.20;;
64826;SDS011;51265;53.972;12.286;2022-07-26T04:20:47;13.20;;;5.20;;
64826;SDS011;51265;53.972;12.286;2022-07-26T04:23:13;13.23;;;5.22;;
64826;SDS011;51265;53.972;12.286;2022-07-26T04:25:39;15.57;;;5.00;;
64826;SDS011;51265;53.972;12.286;2022-07-26T04:28:05;15.10;;;5.80;;
64826;SDS011;51265;53.972;12.286;2022-07-26T04:30:31;18.33;;;5.65;;
64826;SDS011;51265;53.972;12.286;2022-07-26T04:32:57;10.88;;;5.18;;
64826;SDS011;51265;53.972;12.286;2022-07-26T04:35:27;14.50;;;5.43;;
64826;SDS011;51265;53.972;12.286;2022-07-26T04:37:53;15.95;;;5.22;;
64826;SDS011;51265;53.972;12.286;2022-07-26T04:40:20;12.95;;;4.88;;
64826;SDS011;51265;53.972;12.286;2022-07-26T04:42:46;17.25;;;4.85;;
64826;SDS011;51265;53.972;12.286;2022-07-26T04:45:13;16.02;;;5.22;;
64826;SDS011;51265;53.972;12.286;2022-07-26T04:47:43;13.63;;;4.80;;
64826;SDS011;51265;53.972;12.286;2022-07-26T04:50:10;15.55;;;5.13;;
64826;SDS011;51265;53.972;12.286;2022-07-26T04:52:37;16.50;;;4.88;;
64826;SDS011;51265;53.972;12.286;2022-07-26T04:55:04;11.80;;;4.78;;
64826;SDS011;51265;53.972;12.286;2022-07-26T04:57:31;11.38;;;4.90;;
64826;SDS011;51265;53.972;12.286;2022-07-26T04:59:57;15.40;;;5.35;;
64826;SDS011;51265;53.972;12.286;2022-07-26T05:02:23;12.85;;;4.65;;
64826;SDS011;51265;53.972;12.286;2022-07-26T05:04:48;15.63;;;4.70;;
64826;SDS011;51265;53.972;12.286;2022-07-26T05:07:14;15.80;;;5.13;;
64826;SDS011;51265;53.972;12.286;2022-07-26T05:09:40;16.83;;;5.47;;
64826;SDS011;51265;53.972;12.286;2022-07-26T05:12:06;10.75;;;4.82;;
64826;SDS011;51265;53.972;12.286;2022-07-26T05:14:32;13.25;;;5.00;;
64826;SDS011;51265;53.972;12.286;2022-07-26T05:16:58;12.05;;;4.95;;
64826;SDS011;51265;53.972;12.286;2022-07-26T05:19:24;12.45;;;4.82;;
64826;SDS011;51265;53.972;12.286;2022-07-26T05:21:50;13.80;;;5.00;;
64826;SDS011;51265;53.972;12.286;2022-07-26T05:24:16;11.57;;;4.68;;
64826;SDS011;51265;53.972;12.286;2022-07-26T05:26:42;11.38;;;5.03;;
64826;SDS011;51265;53.972;12.286;2022-07-26T05:29:08;12.57;;;4.95;;
64826;SDS011;51265;53.972;12.286;2022-07-26T05:31:33;13.10;;;4.07;;
64826;SDS011;51265;53.972;12.286;2022-07-26T05:33:59;15.15;;;4.88;;
64826;SDS011;51265;53.972;12.286;2022-07-26T05:36:25;11.68;;;4.85;;
64826;SDS011;51265;53.972;12.286;2022-07-26T05:38:51;12.32;;;4.57;;
64826;SDS011;51265;53.972;12.286;2022-07-26T05:41:17;13.65;;;4.63;;
64826;SDS011;51265;53.972;12.286;2022-07-26T05:43:48;15.02;;;4.85;;
64826;SDS011;51265;53.972;12.286;2022-07-26T05:46:14;15.57;;;4.53;;
64826;SDS011;51265;53.972;12.286;2022-07-26T05:48:42;15.70;;;5.05;;
64826;SDS011;51265;53.972;12.286;2022-07-26T05:51:09;15.77;;;4.07;;
64826;SDS011;51265;53.972;12.286;2022-07-26T05:53:35;15.77;;;4.38;;
64826;SDS011;51265;53.972;12.286;2022-07-26T05:56:01;14.40;;;4.38;;
64826;SDS011;51265;53.972;12.286;2022-07-26T05:58:28;14.88;;;4.07;;
64826;SDS011;51265;53.972;12.286;2022-07-26T06:00:54;13.05;;;3.70;;
64826;SDS011;51265;53.972;12.286;2022-07-26T06:03:19;11.27;;;3.58;;
64826;SDS011;51265;53.972;12.286;2022-07-26T06:05:48;12.07;;;4.25;;
64826;SDS011;51265;53.972;12.286;2022-07-26T06:08:16;11.70;;;3.75;;
64826;SDS011;51265;53.972;12.286;2022-07-26T06:10:43;17.15;;;3.80;;
64826;SDS011;51265;53.972;12.286;2022-07-26T06:13:10;16.15;;;3.92;;
64826;SDS011;51265;53.972;12.286;2022-07-26T06:15:36;13.15;;;4.10;;
64826;SDS011;51265;53.972;12.286;2022-07-26T06:18:03;10.20;;;3.40;;
64826;SDS011;51265;53.972;12.286;2022-07-26T06:20:30;10.48;;;3.28;;
64826;SDS011;51265;53.972;12.286;2022-07-26T06:22:56;8.13;;;3.17;;
64826;SDS011;51265;53.972;12.286;2022-07-26T06:25:23;13.93;;;3.38;;
64826;SDS011;51265;53.972;12.286;2022-07-26T06:27:50;7.22;;;2.88;;
64826;SDS011;51265;53.972;12.286;2022-07-26T06:30:16;11.30;;;3.03;;
64826;SDS011;51265;53.972;12.286;2022-07-26T06:32:41;9.93;;;2.72;;
64826;SDS011;51265;53.972;12.286;2022-07-26T06:35:09;9.30;;;3.00;;
64826;SDS011;51265;53.972;12.286;2022-07-26T06:37:36;8.75;;;3.00;;
64826;SDS011;51265;53.972;12.286;2022-07-26T06:40:02;9.75;;;2.60;;
64826;SDS011;51265;53.972;12.286;2022-07-26T06:42:29;9.68;;;2.78;;
64826;SDS011;51265;53.972;12.286;2022-07-26T06:44:55;9.93;;;2.50;;
64826;SDS011;51265;53.972;12.286;2022-07-26T06:47:21;11.13;;;2.80;;
64826;SDS011;51265;53.972;12.286;2022-07-26T06:49:46;14.85;;;3.53;;
64826;SDS011;51265;53.972;12.286;2022-07-26T06:52:12;7.07;;;2.25;;
64826;SDS011;51265;53.972;12.286;2022-07-26T06:54:38;6.63;;;1.95;;
64826;SDS011;51265;53.972;12.286;2022-07-26T06:57:04;7.47;;;1.73;;
64826;SDS011;51265;53.972;12.286;2022-07-26T06:59:31;4.90;;;2.00;;
64826;SDS011;51265;53.972;12.286;2022-07-26T07:01:56;5.20;;;1.65;;
64826;SDS011;51265;53.972;12.286;2022-07-26T07:04:22;3.28;;;1.80;;
64826;SDS011;51265;53.972;12.286;2022-07-26T07:06:48;6.28;;;2.13;;
64826;SDS011;51265;53.972;12.286;2022-07-26T07:09:14;4.32;;;1.70;;
64826;SDS011;51265;53.972;12.286;2022-07-26T07:11:40;7.70;;;2.08;;
64826;SDS011;51265;53.972;12.286;2022-07-26T07:14:08;9.38;;;2.17;;
64826;SDS011;51265;53.972;12.286;2022-07-26T07:16:34;5.47;;;1.90;;
64826;SDS011;51265;53.972;12.286;2022-07-26T07:19:00;6.40;;;1.70;;
64826;SDS011;51265;53.972;12.286;2022-07-26T07:21:26;6.07;;;2.05;;
64826;SDS011;51265;53.972;12.286;2022-07-26T07:23:52;8.32;;;2.03;;
64826;SDS011;51265;53.972;12.286;2022-07-26T07:26:18;5.40;;;1.88;;
64826;SDS011;51265;53.972;12.286;2022-07-26T07:28:44;9.20;;;2.30;;
64826;SDS011;51265;53.972;12.286;2022-07-26T07:31:11;6.90;;;1.77;;
64826;SDS011;51265;53.972;12.286;2022-07-26T07:33:37;6.55;;;1.95;;
64826;SDS011;51265;53.972;12.286;2022-07-26T07:36:03;5.63;;;1.80;;
64826;SDS011;51265;53.972;12.286;2022-07-26T07:38:29;6.57;;;1.65;;
64826;SDS011;51265;53.972;12.286;2022-07-26T07:40:56;5.07;;;1.75;;
64826;SDS011;51265;53.972;12.286;2022-07-26T07:43:21;6.22;;;1.73;;
64826;SDS011;51265;53.972;12.286;2022-07-26T07:45:47;5.53;;;1.58;;
64826;SDS011;51265;53.972;12.286;2022-07-26T07:48:13;5.55;;;1.42;;
64826;SDS011;51265;53.972;12.286;2022-07-26T07:50:39;5.40;;;1.45;;
64826;SDS011;51265;53.972;12.286;2022-07-26T07:53:06;9.35;;;1.55;;
64826;SDS011;51265;53.972;12.286;2022-07-26T07:55:32;5.97;;;1.23;;
64826;SDS011;51265;53.972;12.286;2022-07-26T07:57:58;7.55;;;1.20;;
64826;SDS011;51265;53.972;12.286;2022-07-26T08:00:24;10.05;;;1.38;;
64826;SDS011;51265;53.972;12.286;2022-07-26T08:02:51;6.63;;;1.50;;
64826;SDS011;51265;53.972;12.286;2022-07-26T08:05:17;5.80;;;1.30;;
64826;SDS011;51265;53.972;12.286;2022-07-26T08:07:43;4.20;;;1.45;;
64826;SDS011;51265;53.972;12.286;2022-07-26T08:10:18;5.95;;;1.65;;
64826;SDS011;51265;53.972;12.286;2022-07-26T08:12:44;9.75;;;1.35;;
64826;SDS011;51265;53.972;12.286;2022-07-26T08:15:11;3.97;;;1.20;;
64826;SDS011;51265;53.972;12.286;2022-07-26T08:17:37;2.47;;;1.13;;
64826;SDS011;51265;53.972;12.286;2022-07-26T08:20:03;5.63;;;1.38;;
64826;SDS011;51265;53.972;12.286;2022-07-26T08:22:29;4.05;;;1.35;;
64826;SDS011;51265;53.972;12.286;2022-07-26T08:24:55;4.38;;;1.50;;
64826;SDS011;51265;53.972;12.286;2022-07-26T08:27:22;3.28;;;1.17;;
64826;SDS011;51265;53.972;12.286;2022-07-26T08:29:48;4.63;;;1.20;;
64826;SDS011;51265;53.972;12.286;2022-07-26T08:32:14;2.38;;;1.10;;
64826;SDS011;51265;53.972;12.286;2022-07-26T08:34:40;4.45;;;1.05;;
64826;SDS011;51265;53.972;12.286;2022-07-26T08:37:06;5.72;;;1.40;;
64826;SDS011;51265;53.972;12.286;2022-07-26T08:39:32;6.30;;;1.00;;
64826;SDS011;51265;53.972;12.286;2022-07-26T08:41:58;2.78;;;0.40;;
64826;SDS011;51265;53.972;12.286;2022-07-26T08:44:26;3.25;;;0.30;;
64826;SDS011;51265;53.972;12.286;2022-07-26T08:46:52;2.50;;;0.60;;
64826;SDS011;51265;53.972;12.286;2022-07-26T08:49:18;4.22;;;0.60;;
64826;SDS011;51265;53.972;12.286;2022-07-26T08:51:44;2.30;;;0.55;;
64826;SDS011;51265;53.972;12.286;2022-07-26T08:54:11;4.72;;;0.50;;
64826;SDS011;51265;53.972;12.286;2022-07-26T08:56:40;2.17;;;0.52;;
64826;SDS011;51265;53.972;12.286;2022-07-26T08:59:14;3.75;;;0.70;;
64826;SDS011;51265;53.972;12.286;2022-07-26T09:01:58;3.00;;;0.60;;
64826;SDS011;51265;53.972;12.286;2022-07-26T09:07:06;2.55;;;0.95;;
64826;SDS011;51265;53.972;12.286;2022-07-26T09:12:22;5.25;;;0.50;;
64826;SDS011;51265;53.972;12.286;2022-07-26T09:14:49;5.03;;;0.85;;
64826;SDS011;51265;53.972;12.286;2022-07-26T09:17:18;4.40;;;0.85;;
64826;SDS011;51265;53.972;12.286;2022-07-26T09:19:45;5.60;;;0.73;;
64826;SDS011;51265;53.972;12.286;2022-07-26T09:22:26;4.13;;;0.70;;
64826;SDS011;51265;53.972;12.286;2022-07-26T09:24:52;4.97;;;0.70;;
64826;SDS011;51265;53.972;12.286;2022-07-26T09:27:18;2.63;;;0.65;;
64826;SDS011;51265;53.972;12.286;2022-07-26T09:29:52;3.13;;;0.65;;
64826;SDS011;51265;53.972;12.286;2022-07-26T09:32:21;3.60;;;0.60;;
64826;SDS011;51265;53.972;12.286;2022-07-26T09:34:49;1.75;;;0.73;;
64826;SDS011;51265;53.972;12.286;2022-07-26T09:37:40;2.42;;;0.88;;
64826;SDS011;51265;53.972;12.286;2022-07-26T09:40:12;1.98;;;0.73;;
64826;SDS011;51265;53.972;12.286;2022-07-26T09:42:56;3.35;;;0.57;;
64826;SDS011;51265;53.972;12.286;2022-07-26T09:45:23;7.00;;;0.93;;
64826;SDS011;51265;53.972;12.286;2022-07-26T09:47:49;6.75;;;0.68;;
64826;SDS011;51265;53.972;12.286;2022-07-26T09:50:17;3.38;;;0.88;;
64826;SDS011;51265;53.972;12.286;2022-07-26T09:52:58;1.55;;;0.50;;
64826;SDS011;51265;53.972;12.286;2022-07-26T09:55:32;2.85;;;0.50;;
64826;SDS011;51265;53.972;12.286;2022-07-26T09:58:18;3.83;;;0.60;;
64826;SDS011;51265;53.972;12.286;2022-07-26T10:00:44;1.83;;;0.43;;
64826;SDS011;51265;53.972;12.286;2022-07-26T10:03:11;3.95;;;0.57;;
64826;SDS011;51265;53.972;12.286;2022-07-26T10:05:37;3.58;;;0.63;;
64826;SDS011;51265;53.972;12.286;2022-07-26T10:08:04;3.25;;;0.47;;
64826;SDS011;51265;53.972;12.286;2022-07-26T10:10:42;3.10;;;0.70;;
64826;SDS011;51265;53.972;12.286;2022-07-26T10:13:12;3.13;;;0.50;;
64826;SDS011;51265;53.972;12.286;2022-07-26T10:23:42;3.80;;;0.70;;
64826;SDS011;51265;53.972;12.286;2022-07-26T10:26:11;2.15;;;0.20;;
64826;SDS011;51265;53.972;12.286;2022-07-26T10:34:32;3.22;;;0.50;;
64826;SDS011;51265;53.972;12.286;2022-07-26T10:37:07;1.48;;;0.30;;
64826;SDS011;51265;53.972;12.286;2022-07-26T10:39:36;4.97;;;0.73;;
64826;SDS011;51265;53.972;12.286;2022-07-26T10:42:05;2.13;;;0.45;;
64826;SDS011;51265;53.972;12.286;2022-07-26T10:44:33;1.92;;;0.52;;
64826;SDS011;51265;53.972;12.286;2022-07-26T10:52:13;1.30;;;0.38;;
64826;SDS011;51265;53.972;12.286;2022-07-26T10:57:37;2.85;;;0.75;;
64826;SDS011;51265;53.972;12.286;2022-07-26T11:00:37;4.05;;;0.30;;
64826;SDS011;51265;53.972;12.286;2022-07-26T11:05:28;2.35;;;0.40;;
64826;SDS011;51265;53.972;12.286;2022-07-26T11:08:04;1.67;;;0.30;;
64826;SDS011;51265;53.972;12.286;2022-07-26T11:10:36;2.67;;;0.50;;
64826;SDS011;51265;53.972;12.286;2022-07-26T11:15:34;1.77;;;0.30;;
64826;SDS011;51265;53.972;12.286;2022-07-26T11:18:12;4.85;;;0.50;;
64826;SDS011;51265;53.972;12.286;2022-07-26T11:20:45;2.60;;;0.50;;
64826;SDS011;51265;53.972;12.286;2022-07-26T11:25:58;4.68;;;0.55;;
64826;SDS011;51265;53.972;12.286;2022-07-26T11:28:29;4.72;;;0.50;;
64826;SDS011;51265;53.972;12.286;2022-07-26T11:30:58;4.85;;;0.68;;
64826;SDS011;51265;53.972;12.286;2022-07-26T11:33:37;2.83;;;0.50;;
64826;SDS011;51265;53.972;12.286;2022-07-26T11:36:04;5.25;;;0.30;;
64826;SDS011;51265;53.972;12.286;2022-07-26T11:38:44;3.40;;;0.80;;
64826;SDS011;51265;53.972;12.286;2022-07-26T11:41:10;7.53;;;0.63;;
64826;SDS011;51265;53.972;12.286;2022-07-26T11:43:39;3.05;;;0.50;;
64826;SDS011;51265;53.972;12.286;2022-07-26T11:46:06;3.08;;;0.50;;
64826;SDS011;51265;53.972;12.286;2022-07-26T11:48:32;1.90;;;0.65;;
64826;SDS011;51265;53.972;12.286;2022-07-26T11:51:17;3.22;;;0.50;;
64826;SDS011;51265;53.972;12.286;2022-07-26T11:53:45;7.20;;;0.50;;
64826;SDS011;51265;53.972;12.286;2022-07-26T11:56:13;5.82;;;0.70;;
64826;SDS011;51265;53.972;12.286;2022-07-26T11:58:41;1.08;;;0.32;;
64826;SDS011;51265;53.972;12.286;2022-07-26T12:01:09;2.55;;;0.50;;
64826;SDS011;51265;53.972;12.286;2022-07-26T12:03:37;4.47;;;0.45;;
64826;SDS011;51265;53.972;12.286;2022-07-26T12:06:06;6.70;;;0.65;;
64826;SDS011;51265;53.972;12.286;2022-07-26T12:08:56;4.97;;;0.80;;
64826;SDS011;51265;53.972;12.286;2022-07-26T12:11:24;5.28;;;0.85;;
64826;SDS011;51265;53.972;12.286;2022-07-26T12:14:02;3.55;;;0.50;;
64826;SDS011;51265;53.972;12.286;2022-07-26T12:19:09;5.13;;;0.52;;
64826;SDS011;51265;53.972;12.286;2022-07-26T12:27:11;4.45;;;0.80;;
64826;SDS011;51265;53.972;12.286;2022-07-26T12:29:38;3.20;;;0.60;;
64826;SDS011;51265;53.972;12.286;2022-07-26T12:32:12;4.18;;;0.80;;
64826;SDS011;51265;53.972;12.286;2022-07-26T12:34:56;3.92;;;0.57;;
64826;SDS011;51265;53.972;12.286;2022-07-26T12:37:32;4.47;;;0.70;;
64826;SDS011;51265;53.972;12.286;2022-07-26T12:40:16;7.60;;;0.90;;
64826;SDS011;51265;53.972;12.286;2022-07-26T12:45:37;3.77;;;0.60;;
64826;SDS011;51265;53.972;12.286;2022-07-26T12:48:06;7.15;;;0.70;;
64826;SDS011;51265;53.972;12.286;2022-07-26T12:50:37;5.07;;;0.60;;
64826;SDS011;51265;53.972;12.286;2022-07-26T12:53:07;3.08;;;0.60;;
64826;SDS011;51265;53.972;12.286;2022-07-26T12:55:33;5.65;;;0.75;;
64826;SDS011;51265;53.972;12.286;2022-07-26T12:58:00;5.32;;;0.70;;
64826;SDS011;51265;53.972;12.286;2022-07-26T13:00:27;4.28;;;0.60;;
64826;SDS011;51265;53.972;12.286;2022-07-26T13:02:53;7.88;;;0.90;;
64826;SDS011;51265;53.972;12.286;2022-07-26T13:05:20;6.43;;;1.00;;
64826;SDS011;51265;53.972;12.286;2022-07-26T13:07:46;6.25;;;0.88;;
64826;SDS011;51265;53.972;12.286;2022-07-26T13:10:12;4.38;;;0.57;;
64826;SDS011;51265;53.972;12.286;2022-07-26T13:12:38;6.63;;;1.10;;
64826;SDS011;51265;53.972;12.286;2022-07-26T13:15:05;3.53;;;0.60;;
64826;SDS011;51265;53.972;12.286;2022-07-26T13:17:31;6.13;;;0.82;;
64826;SDS011;51265;53.972;12.286;2022-07-26T13:19:57;4.80;;;0.70;;
64826;SDS011;51265;53.972;12.286;2022-07-26T13:22:23;2.50;;;0.55;;
64826;SDS011;51265;53.972;12.286;2022-07-26T13:24:48;2.72;;;0.57;;
64826;SDS011;51265;53.972;12.286;2022-07-26T13:27:14;4.43;;;0.80;;
64826;SDS011;51265;53.972;12.286;2022-07-26T13:29:40;7.05;;;0.88;;
64826;SDS011;51265;53.972;12.286;2022-07-26T13:32:06;7.35;;;1.38;;
64826;SDS011;51265;53.972;12.286;2022-07-26T13:34:32;7.95;;;0.93;;
64826;SDS011;51265;53.972;12.286;2022-07-26T13:36:58;7.00;;;0.98;;
64826;SDS011;51265;53.972;12.286;2022-07-26T13:39:24;4.88;;;1.10;;
64826;SDS011;51265;53.972;12.286;2022-07-26T13:41:52;5.22;;;0.82;;
64826;SDS011;51265;53.972;12.286;2022-07-26T13:44:19;4.70;;;0.90;;
64826;SDS011;51265;53.972;12.286;2022-07-26T13:46:45;8.10;;;1.15;;
64826;SDS011;51265;53.972;12.286;2022-07-26T13:49:11;4.35;;;0.75;;
64826;SDS011;51265;53.972;12.286;2022-07-26T13:51:37;5.90;;;1.00;;
64826;SDS011;51265;53.972;12.286;2022-07-26T13:54:25;3.17;;;1.13;;
64826;SDS011;51265;53.972;12.286;2022-07-26T13:56:57;6.63;;;0.82;;
64826;SDS011;51265;53.972;12.286;2022-07-26T13:59:24;6.93;;;0.98;;
64826;SDS011;51265;53.972;12.286;2022-07-26T14:01:51;5.18;;;1.00;;
64826;SDS011;51265;53.972;12.286;2022-07-26T14:04:18;3.47;;;0.63;;
64826;SDS011;51265;53.972;12.286;2022-07-26T14:06:44;8.05;;;1.10;;
64826;SDS011;51265;53.972;12.286;2022-07-26T14:09:10;6.63;;;1.15;;
64826;SDS011;51265;53.972;12.286;2022-07-26T14:11:37;4.07;;;0.93;;
64826;SDS011;51265;53.972;12.286;2022-07-26T14:14:03;3.47;;;0.68;;
64826;SDS011;51265;53.972;12.286;2022-07-26T14:16:30;3.92;;;1.08;;
64826;SDS011;51265;53.972;12.286;2022-07-26T14:18:56;3.33;;;0.70;;
64826;SDS011;51265;53.972;12.286;2022-07-26T14:21:23;5.05;;;0.85;;
64826;SDS011;51265;53.972;12.286;2022-07-26T14:23:49;3.45;;;0.85;;
64826;SDS011;51265;53.972;12.286;2022-07-26T14:26:30;2.65;;;0.60;;
64826;SDS011;51265;53.972;12.286;2022-07-26T14:28:56;3.33;;;0.93;;
64826;SDS011;51265;53.972;12.286;2022-07-26T14:31:22;13.30;;;1.70;;
64826;SDS011;51265;53.972;12.286;2022-07-26T14:33:49;4.05;;;0.80;;
64826;SDS011;51265;53.972;12.286;2022-07-26T14:36:15;4.40;;;1.10;;
64826;SDS011;51265;53.972;12.286;2022-07-26T14:38:41;8.15;;;1.38;;
64826;SDS011;51265;53.972;12.286;2022-07-26T14:41:08;5.50;;;0.90;;
64826;SDS011;51265;53.972;12.286;2022-07-26T14:43:35;3.13;;;1.13;;
64826;SDS011;51265;53.972;12.286;2022-07-26T14:46:01;6.07;;;1.25;;
64826;SDS011;51265;53.972;12.286;2022-07-26T14:48:27;5.20;;;1.00;;
64826;SDS011;51265;53.972;12.286;2022-07-26T14:50:53;6.07;;;1.02;;
64826;SDS011;51265;53.972;12.286;2022-07-26T14:53:19;6.50;;;0.90;;
64826;SDS011;51265;53.972;12.286;2022-07-26T14:55:45;5.13;;;1.40;;
64826;SDS011;51265;53.972;12.286;2022-07-26T14:58:11;3.97;;;0.82;;
64826;SDS011;51265;53.972;12.286;2022-07-26T15:00:37;4.45;;;1.10;;
64826;SDS011;51265;53.972;12.286;2022-07-26T15:03:03;6.43;;;1.08;;
64826;SDS011;51265;53.972;12.286;2022-07-26T15:05:29;3.80;;;0.88;;
64826;SDS011;51265;53.972;12.286;2022-07-26T15:07:54;8.13;;;1.27;;
64826;SDS011;51265;53.972;12.286;2022-07-26T15:10:20;5.68;;;0.90;;
64826;SDS011;51265;53.972;12.286;2022-07-26T15:13:05;7.18;;;1.13;;
64826;SDS011;51265;53.972;12.286;2022-07-26T15:15:38;7.32;;;0.90;;
64826;SDS011;51265;53.972;12.286;2022-07-26T15:18:04;2.42;;;0.80;;